sensor_id;sensor_type;location;lat;lon;timestamp;temperature;humidity
15036;DHT22;7615;48.574;13.474;2023-08-06T00:00:08;16.10;99.90
15036;DHT22;7615;48.574;13.474;2023-08-06T00:02:35;16.10;99.90
15036;DHT22;7615;48.574;13.474;2023-08-06T00:05:05;16.10;99.90
15036;DHT22;7615;48.574;13.474;2023-08-06T00:07:40;16.10;99.90
15036;DHT22;7615;48.574;13.474;2023-08-06T00:10:11;16.20;99.90
15036;DHT22;7615;48.574;13.474;2023-08-06T00:12:43;16.10;99.90
15036;DHT22;7615;48.574;13.474;2023-08-06T00:15:34;16.10;99.90
15036;DHT22;7615;48.574;13.474;2023-08-06T00:18:02;16.10;99.90
15036;DHT22;7615;48.574;13.474;2023-08-06T00:20:30;16.10;99.90
15036;DHT22;7615;48.574;13.474;2023-08-06T00:23:10;16.10;99.90
15036;DHT22;7615;48.574;13.474;2023-08-06T00:25:38;16.00;99.90
15036;DHT22;7615;48.574;13.474;2023-08-06T00:28:05;16.00;99.90
15036;DHT22;7615;48.574;13.474;2023-08-06T00:30:35;16.10;99.90
15036;DHT22;7615;48.574;13.474;2023-08-06T00:33:03;16.90;99.90
15036;DHT22;7615;48.574;13.474;2023-08-06T00:35:32;16.10;99.90
15036;DHT22;7615;48.574;13.474;2023-08-06T00:38:00;16.20;99.90
15036;DHT22;7615;48.574;13.474;2023-08-06T00:40:28;16.10;99.90
15036;DHT22;7615;48.574;13.474;2023-08-06T00:42:56;16.10;99.90
15036;DHT22;7615;48.574;13.474;2023-08-06T00:45:23;16.10;99.90
15036;DHT22;7615;48.574;13.474;2023-08-06T00:47:53;16.10;99.90
15036;DHT22;7615;48.574;13.474;2023-08-06T00:50:21;16.10;99.90
15036;DHT22;7615;48.574;13.474;2023-08-06T00:52:49;16.10;99.90
15036;DHT22;7615;48.574;13.474;2023-08-06T00:55:16;16.10;99.90
15036;DHT22;7615;48.574;13.474;2023-08-06T00:57:43;16.00;99.90
15036;DHT22;7615;48.574;13.474;2023-08-06T01:00:12;16.00;99.90
15036;DHT22;7615;48.574;13.474;2023-08-06T01:02:39;16.00;99.90
15036;DHT22;7615;48.574;13.474;2023-08-06T01:05:08;15.40;99.90
15036;DHT22;7615;48.574;13.474;2023-08-06T01:07:50;16.00;99.90
15036;DHT22;7615;48.574;13.474;2023-08-06T01:10:23;16.00;99.90
15036;DHT22;7615;48.574;13.474;2023-08-06T01:13:03;16.10;99.90
15036;DHT22;7615;48.574;13.474;2023-08-06T01:15:37;16.00;99.90
15036;DHT22;7615;48.574;13.474;2023-08-06T01:18:09;16.00;99.90
15036;DHT22;7615;48.574;13.474;2023-08-06T01:20:39;16.10;99.90
15036;DHT22;7615;48.574;13.474;2023-08-06T01:23:06;16.00;99.90
15036;DHT22;7615;48.574;13.474;2023-08-06T01:25:35;15.90;99.90
15036;DHT22;7615;48.574;13.474;2023-08-06T01:28:11;15.90;99.90
15036;DHT22;7615;48.574;13.474;2023-08-06T01:30:43;16.00;99.90
15036;DHT22;7615;48.574;13.474;2023-08-06T01:33:16;16.00;99.90
15036;DHT22;7615;48.574;13.474;2023-08-06T01:35:49;16.00;99.90
15036;DHT22;7615;48.574;13.474;2023-08-06T01:38:16;16.00;99.90
15036;DHT22;7615;48.574;13.474;2023-08-06T01:40:43;16.00;99.90
15036;DHT22;7615;48.574;13.474;2023-08-06T01:43:11;16.00;99.90
15036;DHT22;7615;48.574;13.474;2023-08-06T01:45:38;16.00;99.90
15036;DHT22;7615;48.574;13.474;2023-08-06T01:48:06;16.00;99.90
15036;DHT22;7615;48.574;13.474;2023-08-06T01:50:36;16.10;99.90
15036;DHT22;7615;48.574;13.474;2023-08-06T01:53:14;16.10;99.90
15036;DHT22;7615;48.574;13.474;2023-08-06T01:55:41;16.20;99.90
15036;DHT22;7615;48.574;13.474;2023-08-06T01:58:08;16.20;99.90
15036;DHT22;7615;48.574;13.474;2023-08-06T02:00:35;16.20;99.90
15036;DHT22;7615;48.574;13.474;2023-08-06T02:03:03;16.20;99.90
15036;DHT22;7615;48.574;13.474;2023-08-06T02:05:30;16.20;99.90
15036;DHT22;7615;48.574;13.474;2023-08-06T02:07:58;16.20;99.90
15036;DHT22;7615;48.574;13.474;2023-08-06T02:10:59;16.20;99.90
15036;DHT22;7615;48.574;13.474;2023-08-06T02:13:34;16.10;99.90
15036;DHT22;7615;48.574;13.474;2023-08-06T02:16:25;16.10;99.90
15036;DHT22;7615;48.574;13.474;2023-08-06T02:18:52;16.00;99.90
15036;DHT22;7615;48.574;13.474;2023-08-06T02:21:19;16.10;99.90
15036;DHT22;7615;48.574;13.474;2023-08-06T02:23:46;16.10;99.90
15036;DHT22;7615;48.574;13.474;2023-08-06T02:26:24;16.10;99.90
15036;DHT22;7615;48.574;13.474;2023-08-06T02:28:52;16.10;99.90
15036;DHT22;7615;48.574;13.474;2023-08-06T02:31:26;15.00;99.90
15036;DHT22;7615;48.574;13.474;2023-08-06T02:33:54;16.10;99.90
15036;DHT22;7615;48.574;13.474;2023-08-06T02:36:24;16.10;99.90
15036;DHT22;7615;48.574;13.474;2023-08-06T02:39:02;16.10;99.90
15036;DHT22;7615;48.574;13.474;2023-08-06T02:41:33;16.00;99.90
15036;DHT22;7615;48.574;13.474;2023-08-06T02:44:00;16.00;99.90
15036;DHT22;7615;48.574;13.474;2023-08-06T02:46:35;15.90;99.90
15036;DHT22;7615;48.574;13.474;2023-08-06T02:49:08;15.80;99.90
15036;DHT22;7615;48.574;13.474;2023-08-06T02:51:38;15.80;99.90
15036;DHT22;7615;48.574;13.474;2023-08-06T02:54:07;15.70;99.90
15036;DHT22;7615;48.574;13.474;2023-08-06T02:56:39;15.70;99.90
15036;DHT22;7615;48.574;13.474;2023-08-06T02:59:09;15.70;99.90
15036;DHT22;7615;48.574;13.474;2023-08-06T03:01:39;15.70;99.90
15036;DHT22;7615;48.574;13.474;2023-08-06T03:04:06;15.70;99.90
15036;DHT22;7615;48.574;13.474;2023-08-06T03:06:33;15.70;99.90
15036;DHT22;7615;48.574;13.474;2023-08-06T03:09:01;15.60;99.90
15036;DHT22;7615;48.574;13.474;2023-08-06T03:11:31;15.60;99.90
15036;DHT22;7615;48.574;13.474;2023-08-06T03:14:00;16.10;99.90
15036;DHT22;7615;48.574;13.474;2023-08-06T03:16:30;15.60;99.90
15036;DHT22;7615;48.574;13.474;2023-08-06T03:19:00;15.60;99.90
15036;DHT22;7615;48.574;13.474;2023-08-06T03:21:50;14.30;99.90
15036;DHT22;7615;48.574;13.474;2023-08-06T03:24:49;15.50;99.90
15036;DHT22;7615;48.574;13.474;2023-08-06T03:27:24;15.50;99.90
15036;DHT22;7615;48.574;13.474;2023-08-06T03:29:54;15.60;99.90
15036;DHT22;7615;48.574;13.474;2023-08-06T03:32:22;15.90;99.90
15036;DHT22;7615;48.574;13.474;2023-08-06T03:34:51;15.60;99.90
15036;DHT22;7615;48.574;13.474;2023-08-06T03:37:18;15.70;99.90
15036;DHT22;7615;48.574;13.474;2023-08-06T03:39:45;15.70;99.90
15036;DHT22;7615;48.574;13.474;2023-08-06T03:42:14;15.70;99.90
15036;DHT22;7615;48.574;13.474;2023-08-06T03:44:41;15.80;99.90
15036;DHT22;7615;48.574;13.474;2023-08-06T03:47:09;15.80;99.90
15036;DHT22;7615;48.574;13.474;2023-08-06T03:49:38;15.70;99.90
15036;DHT22;7615;48.574;13.474;2023-08-06T03:52:09;14.30;99.90
15036;DHT22;7615;48.574;13.474;2023-08-06T03:54:36;15.60;99.90
15036;DHT22;7615;48.574;13.474;2023-08-06T03:57:05;15.60;99.90
15036;DHT22;7615;48.574;13.474;2023-08-06T03:59:33;15.70;99.90
15036;DHT22;7615;48.574;13.474;2023-08-06T04:02:00;15.80;99.90
15036;DHT22;7615;48.574;13.474;2023-08-06T04:04:29;15.60;99.90
15036;DHT22;7615;48.574;13.474;2023-08-06T04:06:56;15.50;99.90
15036;DHT22;7615;48.574;13.474;2023-08-06T04:09:23;15.60;99.90
15036;DHT22;7615;48.574;13.474;2023-08-06T04:11:50;15.50;99.90
15036;DHT22;7615;48.574;13.474;2023-08-06T04:14:17;15.50;99.90
15036;DHT22;7615;48.574;13.474;2023-08-06T04:16:44;15.60;99.90
15036;DHT22;7615;48.574;13.474;2023-08-06T04:19:11;14.80;99.90
15036;DHT22;7615;48.574;13.474;2023-08-06T04:21:40;15.50;99.90
15036;DHT22;7615;48.574;13.474;2023-08-06T04:24:07;15.50;99.90
15036;DHT22;7615;48.574;13.474;2023-08-06T04:26:34;15.50;99.90
15036;DHT22;7615;48.574;13.474;2023-08-06T04:29:01;15.90;99.90
15036;DHT22;7615;48.574;13.474;2023-08-06T04:31:29;15.50;99.90
15036;DHT22;7615;48.574;13.474;2023-08-06T04:33:56;15.40;99.90
15036;DHT22;7615;48.574;13.474;2023-08-06T04:36:23;15.70;99.90
15036;DHT22;7615;48.574;13.474;2023-08-06T04:38:51;15.60;99.90
15036;DHT22;7615;48.574;13.474;2023-08-06T04:41:18;15.60;99.90
15036;DHT22;7615;48.574;13.474;2023-08-06T04:43:45;15.60;99.90
15036;DHT22;7615;48.574;13.474;2023-08-06T04:46:12;15.50;99.90
15036;DHT22;7615;48.574;13.474;2023-08-06T04:48:39;16.20;99.90
15036;DHT22;7615;48.574;13.474;2023-08-06T04:51:06;15.70;99.90
15036;DHT22;7615;48.574;13.474;2023-08-06T04:53:33;15.60;99.90
15036;DHT22;7615;48.574;13.474;2023-08-06T04:56:03;15.80;99.90
15036;DHT22;7615;48.574;13.474;2023-08-06T04:58:30;15.80;99.90
15036;DHT22;7615;48.574;13.474;2023-08-06T05:00:57;15.80;99.90
15036;DHT22;7615;48.574;13.474;2023-08-06T05:03:24;15.80;99.90
15036;DHT22;7615;48.574;13.474;2023-08-06T05:05:51;15.90;99.90
15036;DHT22;7615;48.574;13.474;2023-08-06T05:08:18;16.10;99.90
15036;DHT22;7615;48.574;13.474;2023-08-06T05:10:46;16.10;99.90
15036;DHT22;7615;48.574;13.474;2023-08-06T05:13:14;16.10;99.90
15036;DHT22;7615;48.574;13.474;2023-08-06T05:15:41;16.10;99.90
15036;DHT22;7615;48.574;13.474;2023-08-06T05:18:10;16.10;99.90
15036;DHT22;7615;48.574;13.474;2023-08-06T05:20:39;16.20;99.90
15036;DHT22;7615;48.574;13.474;2023-08-06T05:23:06;16.10;99.90
15036;DHT22;7615;48.574;13.474;2023-08-06T05:25:34;16.00;99.90
15036;DHT22;7615;48.574;13.474;2023-08-06T05:28:03;16.10;99.90
15036;DHT22;7615;48.574;13.474;2023-08-06T05:30:33;15.20;99.90
15036;DHT22;7615;48.574;13.474;2023-08-06T05:33:02;16.00;99.90
15036;DHT22;7615;48.574;13.474;2023-08-06T05:35:29;16.10;99.90
15036;DHT22;7615;48.574;13.474;2023-08-06T05:37:56;16.10;99.90
15036;DHT22;7615;48.574;13.474;2023-08-06T05:40:46;16.10;99.90
15036;DHT22;7615;48.574;13.474;2023-08-06T05:43:13;16.10;99.90
15036;DHT22;7615;48.574;13.474;2023-08-06T05:46:07;16.00;99.90
15036;DHT22;7615;48.574;13.474;2023-08-06T05:48:37;16.80;99.90
15036;DHT22;7615;48.574;13.474;2023-08-06T05:51:04;16.10;99.90
15036;DHT22;7615;48.574;13.474;2023-08-06T05:53:33;16.00;99.90
15036;DHT22;7615;48.574;13.474;2023-08-06T05:56:00;16.20;99.90
15036;DHT22;7615;48.574;13.474;2023-08-06T05:58:37;16.00;99.90
15036;DHT22;7615;48.574;13.474;2023-08-06T06:01:13;16.10;99.90
15036;DHT22;7615;48.574;13.474;2023-08-06T06:03:40;16.10;99.90
15036;DHT22;7615;48.574;13.474;2023-08-06T06:06:07;16.10;99.90
15036;DHT22;7615;48.574;13.474;2023-08-06T06:08:34;16.10;99.90
15036;DHT22;7615;48.574;13.474;2023-08-06T06:11:01;16.40;99.90
15036;DHT22;7615;48.574;13.474;2023-08-06T06:13:29;16.30;99.90
15036;DHT22;7615;48.574;13.474;2023-08-06T06:16:00;16.30;99.90
15036;DHT22;7615;48.574;13.474;2023-08-06T06:18:29;16.40;99.90
15036;DHT22;7615;48.574;13.474;2023-08-06T06:20:56;16.60;99.90
15036;DHT22;7615;48.574;13.474;2023-08-06T06:23:25;16.60;99.90
15036;DHT22;7615;48.574;13.474;2023-08-06T06:25:52;16.70;99.90
15036;DHT22;7615;48.574;13.474;2023-08-06T06:28:21;17.00;99.90
15036;DHT22;7615;48.574;13.474;2023-08-06T06:30:59;16.90;99.90
15036;DHT22;7615;48.574;13.474;2023-08-06T06:33:30;15.70;99.90
15036;DHT22;7615;48.574;13.474;2023-08-06T06:36:03;16.90;99.90
15036;DHT22;7615;48.574;13.474;2023-08-06T06:38:37;16.90;99.90
15036;DHT22;7615;48.574;13.474;2023-08-06T06:41:04;16.90;99.90
15036;DHT22;7615;48.574;13.474;2023-08-06T06:43:32;17.00;99.90
15036;DHT22;7615;48.574;13.474;2023-08-06T06:46:00;17.20;99.90
15036;DHT22;7615;48.574;13.474;2023-08-06T06:48:37;16.80;99.90
15036;DHT22;7615;48.574;13.474;2023-08-06T06:51:04;17.00;99.90
15036;DHT22;7615;48.574;13.474;2023-08-06T06:56:57;17.00;99.90
15036;DHT22;7615;48.574;13.474;2023-08-06T06:59:24;16.90;99.90
15036;DHT22;7615;48.574;13.474;2023-08-06T07:01:59;16.80;99.90
15036;DHT22;7615;48.574;13.474;2023-08-06T07:04:57;16.80;99.90
15036;DHT22;7615;48.574;13.474;2023-08-06T07:07:42;16.80;99.90
15036;DHT22;7615;48.574;13.474;2023-08-06T07:10:10;16.80;99.90
15036;DHT22;7615;48.574;13.474;2023-08-06T07:12:38;16.80;99.90
15036;DHT22;7615;48.574;13.474;2023-08-06T07:15:06;16.60;99.90
15036;DHT22;7615;48.574;13.474;2023-08-06T07:17:35;16.90;99.90
15036;DHT22;7615;48.574;13.474;2023-08-06T07:20:06;17.00;99.90
15036;DHT22;7615;48.574;13.474;2023-08-06T07:22:34;16.90;99.90
15036;DHT22;7615;48.574;13.474;2023-08-06T07:25:01;16.90;99.90
15036;DHT22;7615;48.574;13.474;2023-08-06T07:27:29;17.00;99.90
15036;DHT22;7615;48.574;13.474;2023-08-06T07:29:56;17.00;99.90
15036;DHT22;7615;48.574;13.474;2023-08-06T07:32:24;16.90;99.90
15036;DHT22;7615;48.574;13.474;2023-08-06T07:34:53;18.80;99.90
15036;DHT22;7615;48.574;13.474;2023-08-06T07:37:26;17.10;99.90
15036;DHT22;7615;48.574;13.474;2023-08-06T07:40:02;17.20;99.90
15036;DHT22;7615;48.574;13.474;2023-08-06T07:42:29;17.20;99.90
15036;DHT22;7615;48.574;13.474;2023-08-06T07:44:58;17.30;99.90
15036;DHT22;7615;48.574;13.474;2023-08-06T07:47:25;17.30;99.90
15036;DHT22;7615;48.574;13.474;2023-08-06T07:49:52;17.30;99.90
15036;DHT22;7615;48.574;13.474;2023-08-06T07:52:19;17.10;99.90
15036;DHT22;7615;48.574;13.474;2023-08-06T07:54:47;17.10;99.90
15036;DHT22;7615;48.574;13.474;2023-08-06T07:57:14;17.00;99.90
15036;DHT22;7615;48.574;13.474;2023-08-06T07:59:42;17.10;99.90
15036;DHT22;7615;48.574;13.474;2023-08-06T08:02:09;17.10;99.90
15036;DHT22;7615;48.574;13.474;2023-08-06T08:04:35;17.00;99.90
15036;DHT22;7615;48.574;13.474;2023-08-06T08:07:03;17.10;99.90
15036;DHT22;7615;48.574;13.474;2023-08-06T08:09:30;17.20;99.90
15036;DHT22;7615;48.574;13.474;2023-08-06T08:11:58;17.20;99.90
15036;DHT22;7615;48.574;13.474;2023-08-06T08:14:26;17.30;99.90
15036;DHT22;7615;48.574;13.474;2023-08-06T08:16:54;17.40;99.90
15036;DHT22;7615;48.574;13.474;2023-08-06T08:19:21;17.50;99.90
15036;DHT22;7615;48.574;13.474;2023-08-06T08:21:48;17.50;99.90
15036;DHT22;7615;48.574;13.474;2023-08-06T08:24:15;17.50;99.90
15036;DHT22;7615;48.574;13.474;2023-08-06T08:26:45;17.60;99.90
15036;DHT22;7615;48.574;13.474;2023-08-06T08:29:13;17.60;99.90
15036;DHT22;7615;48.574;13.474;2023-08-06T08:31:40;17.60;99.90
15036;DHT22;7615;48.574;13.474;2023-08-06T08:34:07;17.50;99.90
15036;DHT22;7615;48.574;13.474;2023-08-06T08:36:34;17.60;99.90
15036;DHT22;7615;48.574;13.474;2023-08-06T08:39:01;17.60;99.90
15036;DHT22;7615;48.574;13.474;2023-08-06T08:41:28;17.50;99.90
15036;DHT22;7615;48.574;13.474;2023-08-06T08:43:58;17.60;99.90
15036;DHT22;7615;48.574;13.474;2023-08-06T08:46:27;17.70;99.90
15036;DHT22;7615;48.574;13.474;2023-08-06T08:48:56;17.80;99.90
15036;DHT22;7615;48.574;13.474;2023-08-06T08:51:23;17.70;99.90
15036;DHT22;7615;48.574;13.474;2023-08-06T08:53:52;17.70;99.90
15036;DHT22;7615;48.574;13.474;2023-08-06T08:56:21;17.50;99.90
15036;DHT22;7615;48.574;13.474;2023-08-06T08:58:48;17.40;99.90
15036;DHT22;7615;48.574;13.474;2023-08-06T09:01:15;17.60;99.90
15036;DHT22;7615;48.574;13.474;2023-08-06T09:03:44;17.80;99.90
15036;DHT22;7615;48.574;13.474;2023-08-06T09:06:11;17.90;99.90
15036;DHT22;7615;48.574;13.474;2023-08-06T09:08:41;18.20;99.90
15036;DHT22;7615;48.574;13.474;2023-08-06T09:11:10;18.40;99.90
15036;DHT22;7615;48.574;13.474;2023-08-06T09:13:37;18.50;99.90
15036;DHT22;7615;48.574;13.474;2023-08-06T09:16:04;18.60;99.90
15036;DHT22;7615;48.574;13.474;2023-08-06T09:18:31;18.70;99.90
15036;DHT22;7615;48.574;13.474;2023-08-06T09:21:29;18.90;99.90
15036;DHT22;7615;48.574;13.474;2023-08-06T09:23:56;18.90;99.90
15036;DHT22;7615;48.574;13.474;2023-08-06T09:26:33;19.00;99.90
15036;DHT22;7615;48.574;13.474;2023-08-06T09:29:00;18.90;99.90
15036;DHT22;7615;48.574;13.474;2023-08-06T09:31:33;18.90;99.90
15036;DHT22;7615;48.574;13.474;2023-08-06T09:34:00;19.10;99.90
15036;DHT22;7615;48.574;13.474;2023-08-06T09:36:28;19.10;99.90
15036;DHT22;7615;48.574;13.474;2023-08-06T09:38:55;19.20;99.90
15036;DHT22;7615;48.574;13.474;2023-08-06T09:41:29;19.20;99.90
15036;DHT22;7615;48.574;13.474;2023-08-06T09:43:55;19.20;99.90
15036;DHT22;7615;48.574;13.474;2023-08-06T09:46:22;19.30;99.90
15036;DHT22;7615;48.574;13.474;2023-08-06T09:48:50;19.60;99.90
15036;DHT22;7615;48.574;13.474;2023-08-06T09:51:17;19.50;99.90
15036;DHT22;7615;48.574;13.474;2023-08-06T09:53:47;19.60;99.90
15036;DHT22;7615;48.574;13.474;2023-08-06T09:56:17;19.40;99.90
15036;DHT22;7615;48.574;13.474;2023-08-06T09:58:46;19.20;99.90
15036;DHT22;7615;48.574;13.474;2023-08-06T10:01:14;19.20;99.90
15036;DHT22;7615;48.574;13.474;2023-08-06T10:03:42;19.10;99.90
15036;DHT22;7615;48.574;13.474;2023-08-06T10:06:10;18.90;99.90
15036;DHT22;7615;48.574;13.474;2023-08-06T10:11:08;18.00;99.90
15036;DHT22;7615;48.574;13.474;2023-08-06T10:13:38;17.30;99.90
15036;DHT22;7615;48.574;13.474;2023-08-06T10:16:05;16.70;99.90
15036;DHT22;7615;48.574;13.474;2023-08-06T10:18:36;16.50;99.90
15036;DHT22;7615;48.574;13.474;2023-08-06T10:21:07;16.20;99.90
15036;DHT22;7615;48.574;13.474;2023-08-06T10:23:36;16.20;99.90
15036;DHT22;7615;48.574;13.474;2023-08-06T10:26:04;16.40;99.90
15036;DHT22;7615;48.574;13.474;2023-08-06T10:28:36;16.60;99.90
15036;DHT22;7615;48.574;13.474;2023-08-06T10:31:03;17.00;99.90
15036;DHT22;7615;48.574;13.474;2023-08-06T10:33:41;17.30;99.90
15036;DHT22;7615;48.574;13.474;2023-08-06T10:36:09;17.50;99.90
15036;DHT22;7615;48.574;13.474;2023-08-06T10:38:44;17.60;99.90
15036;DHT22;7615;48.574;13.474;2023-08-06T10:41:23;17.70;99.90
15036;DHT22;7615;48.574;13.474;2023-08-06T10:44:05;17.80;99.90
15036;DHT22;7615;48.574;13.474;2023-08-06T10:46:34;18.00;99.90
15036;DHT22;7615;48.574;13.474;2023-08-06T10:49:01;18.20;99.90
15036;DHT22;7615;48.574;13.474;2023-08-06T10:51:28;18.20;99.90
15036;DHT22;7615;48.574;13.474;2023-08-06T10:53:55;18.00;99.90
15036;DHT22;7615;48.574;13.474;2023-08-06T10:56:24;18.00;99.90
15036;DHT22;7615;48.574;13.474;2023-08-06T10:58:54;18.10;99.90
15036;DHT22;7615;48.574;13.474;2023-08-06T11:01:23;18.10;99.90
15036;DHT22;7615;48.574;13.474;2023-08-06T11:03:51;18.20;99.90
15036;DHT22;7615;48.574;13.474;2023-08-06T11:06:19;18.20;99.90
15036;DHT22;7615;48.574;13.474;2023-08-06T11:08:50;18.20;99.90
15036;DHT22;7615;48.574;13.474;2023-08-06T11:11:19;18.30;99.90
15036;DHT22;7615;48.574;13.474;2023-08-06T11:13:47;18.30;99.90
15036;DHT22;7615;48.574;13.474;2023-08-06T11:16:14;18.30;99.90
15036;DHT22;7615;48.574;13.474;2023-08-06T11:18:43;18.30;99.90
15036;DHT22;7615;48.574;13.474;2023-08-06T11:21:10;18.20;99.90
15036;DHT22;7615;48.574;13.474;2023-08-06T11:23:39;18.20;99.90
15036;DHT22;7615;48.574;13.474;2023-08-06T11:26:07;18.20;99.90
15036;DHT22;7615;48.574;13.474;2023-08-06T11:28:34;18.10;99.90
15036;DHT22;7615;48.574;13.474;2023-08-06T11:31:01;18.00;99.90
15036;DHT22;7615;48.574;13.474;2023-08-06T11:33:29;18.10;99.90
15036;DHT22;7615;48.574;13.474;2023-08-06T11:35:59;18.10;99.90
15036;DHT22;7615;48.574;13.474;2023-08-06T11:38:26;18.30;99.90
15036;DHT22;7615;48.574;13.474;2023-08-06T11:40:54;18.60;99.90
15036;DHT22;7615;48.574;13.474;2023-08-06T11:43:22;18.60;99.90
15036;DHT22;7615;48.574;13.474;2023-08-06T11:45:49;18.70;99.90
15036;DHT22;7615;48.574;13.474;2023-08-06T11:48:16;18.90;99.90
15036;DHT22;7615;48.574;13.474;2023-08-06T11:50:43;18.90;99.90
15036;DHT22;7615;48.574;13.474;2023-08-06T11:53:14;18.90;99.90
15036;DHT22;7615;48.574;13.474;2023-08-06T11:55:41;18.90;99.90
15036;DHT22;7615;48.574;13.474;2023-08-06T11:58:09;18.90;99.90
15036;DHT22;7615;48.574;13.474;2023-08-06T12:00:37;18.90;99.90
15036;DHT22;7615;48.574;13.474;2023-08-06T12:03:05;19.00;99.90
15036;DHT22;7615;48.574;13.474;2023-08-06T12:05:33;19.10;99.90
15036;DHT22;7615;48.574;13.474;2023-08-06T12:08:01;19.20;99.90
15036;DHT22;7615;48.574;13.474;2023-08-06T12:10:32;19.30;99.90
15036;DHT22;7615;48.574;13.474;2023-08-06T12:13:00;19.30;99.90
15036;DHT22;7615;48.574;13.474;2023-08-06T12:15:28;18.60;99.90
15036;DHT22;7615;48.574;13.474;2023-08-06T12:17:55;18.50;99.90
15036;DHT22;7615;48.574;13.474;2023-08-06T12:20:22;18.70;99.90
15036;DHT22;7615;48.574;13.474;2023-08-06T12:22:49;19.00;99.90
15036;DHT22;7615;48.574;13.474;2023-08-06T12:25:15;19.20;99.90
15036;DHT22;7615;48.574;13.474;2023-08-06T12:27:44;19.60;99.90
15036;DHT22;7615;48.574;13.474;2023-08-06T12:30:26;19.60;99.90
15036;DHT22;7615;48.574;13.474;2023-08-06T12:32:53;19.30;99.90
15036;DHT22;7615;48.574;13.474;2023-08-06T12:35:20;19.50;99.90
15036;DHT22;7615;48.574;13.474;2023-08-06T12:37:47;19.70;99.90
15036;DHT22;7615;48.574;13.474;2023-08-06T12:40:14;19.60;99.90
15036;DHT22;7615;48.574;13.474;2023-08-06T12:42:41;19.70;99.90
15036;DHT22;7615;48.574;13.474;2023-08-06T12:47:36;20.00;99.90
15036;DHT22;7615;48.574;13.474;2023-08-06T12:50:04;19.90;99.90
15036;DHT22;7615;48.574;13.474;2023-08-06T12:52:31;19.70;99.90
15036;DHT22;7615;48.574;13.474;2023-08-06T12:54:58;19.50;99.90
15036;DHT22;7615;48.574;13.474;2023-08-06T12:57:25;19.30;99.90
15036;DHT22;7615;48.574;13.474;2023-08-06T12:59:55;19.30;99.90
15036;DHT22;7615;48.574;13.474;2023-08-06T13:02:21;19.40;99.90
15036;DHT22;7615;48.574;13.474;2023-08-06T13:04:50;19.20;99.90
15036;DHT22;7615;48.574;13.474;2023-08-06T13:07:17;18.90;99.90
15036;DHT22;7615;48.574;13.474;2023-08-06T13:09:43;18.80;99.90
15036;DHT22;7615;48.574;13.474;2023-08-06T13:12:10;18.80;99.90
15036;DHT22;7615;48.574;13.474;2023-08-06T13:14:37;18.90;99.90
15036;DHT22;7615;48.574;13.474;2023-08-06T13:17:04;19.00;99.90
15036;DHT22;7615;48.574;13.474;2023-08-06T13:19:33;18.80;99.90
15036;DHT22;7615;48.574;13.474;2023-08-06T13:22:03;18.60;99.90
15036;DHT22;7615;48.574;13.474;2023-08-06T13:24:32;18.60;99.90
15036;DHT22;7615;48.574;13.474;2023-08-06T13:26:59;18.60;99.90
15036;DHT22;7615;48.574;13.474;2023-08-06T13:29:26;18.40;99.90
15036;DHT22;7615;48.574;13.474;2023-08-06T13:31:53;18.40;99.90
15036;DHT22;7615;48.574;13.474;2023-08-06T13:34:20;18.60;99.90
15036;DHT22;7615;48.574;13.474;2023-08-06T13:36:47;18.70;99.90
15036;DHT22;7615;48.574;13.474;2023-08-06T13:39:16;18.70;99.90
15036;DHT22;7615;48.574;13.474;2023-08-06T13:41:44;18.70;99.90
15036;DHT22;7615;48.574;13.474;2023-08-06T13:44:12;18.70;99.90
15036;DHT22;7615;48.574;13.474;2023-08-06T13:46:41;18.60;99.90
15036;DHT22;7615;48.574;13.474;2023-08-06T13:49:08;18.40;99.90
15036;DHT22;7615;48.574;13.474;2023-08-06T13:51:34;18.30;99.90
15036;DHT22;7615;48.574;13.474;2023-08-06T13:58:57;17.40;99.90
15036;DHT22;7615;48.574;13.474;2023-08-06T14:01:24;16.60;99.90
15036;DHT22;7615;48.574;13.474;2023-08-06T14:03:51;15.70;99.90
15036;DHT22;7615;48.574;13.474;2023-08-06T14:06:19;15.50;99.90
15036;DHT22;7615;48.574;13.474;2023-08-06T14:08:46;15.40;99.90
15036;DHT22;7615;48.574;13.474;2023-08-06T14:11:13;15.10;99.90
15036;DHT22;7615;48.574;13.474;2023-08-06T14:13:41;16.10;99.90
15036;DHT22;7615;48.574;13.474;2023-08-06T14:16:09;16.30;99.90
15036;DHT22;7615;48.574;13.474;2023-08-06T14:18:36;15.70;99.90
15036;DHT22;7615;48.574;13.474;2023-08-06T14:21:04;16.10;99.90
15036;DHT22;7615;48.574;13.474;2023-08-06T14:23:31;16.10;99.90
15036;DHT22;7615;48.574;13.474;2023-08-06T14:25:58;16.50;99.90
15036;DHT22;7615;48.574;13.474;2023-08-06T14:28:24;16.70;99.90
15036;DHT22;7615;48.574;13.474;2023-08-06T14:30:53;16.90;99.90
15036;DHT22;7615;48.574;13.474;2023-08-06T14:33:21;17.30;99.90
15036;DHT22;7615;48.574;13.474;2023-08-06T14:35:48;17.60;99.90
15036;DHT22;7615;48.574;13.474;2023-08-06T14:38:15;16.40;99.90
15036;DHT22;7615;48.574;13.474;2023-08-06T14:40:43;16.60;99.90
15036;DHT22;7615;48.574;13.474;2023-08-06T14:43:10;15.80;99.90
15036;DHT22;7615;48.574;13.474;2023-08-06T14:45:38;17.20;99.90
15036;DHT22;7615;48.574;13.474;2023-08-06T14:48:07;16.50;99.90
15036;DHT22;7615;48.574;13.474;2023-08-06T14:50:34;16.80;99.90
15036;DHT22;7615;48.574;13.474;2023-08-06T14:53:01;16.70;99.90
15036;DHT22;7615;48.574;13.474;2023-08-06T14:55:30;16.30;99.90
15036;DHT22;7615;48.574;13.474;2023-08-06T14:57:57;18.00;99.90
15036;DHT22;7615;48.574;13.474;2023-08-06T15:00:24;16.90;99.90
15036;DHT22;7615;48.574;13.474;2023-08-06T15:02:50;17.10;99.90
15036;DHT22;7615;48.574;13.474;2023-08-06T15:05:19;16.90;99.90
15036;DHT22;7615;48.574;13.474;2023-08-06T15:07:46;18.50;99.90
15036;DHT22;7615;48.574;13.474;2023-08-06T15:10:14;16.60;99.90
15036;DHT22;7615;48.574;13.474;2023-08-06T15:12:42;16.20;99.90
15036;DHT22;7615;48.574;13.474;2023-08-06T15:15:09;16.40;99.90
15036;DHT22;7615;48.574;13.474;2023-08-06T15:17:36;15.80;99.90
15036;DHT22;7615;48.574;13.474;2023-08-06T15:20:04;15.70;99.90
15036;DHT22;7615;48.574;13.474;2023-08-06T15:22:33;15.50;99.90
15036;DHT22;7615;48.574;13.474;2023-08-06T15:25:00;16.10;99.90
15036;DHT22;7615;48.574;13.474;2023-08-06T15:27:27;15.40;99.90
15036;DHT22;7615;48.574;13.474;2023-08-06T15:29:54;16.20;99.90
15036;DHT22;7615;48.574;13.474;2023-08-06T15:32:21;15.80;99.90
15036;DHT22;7615;48.574;13.474;2023-08-06T15:34:50;16.80;99.90
15036;DHT22;7615;48.574;13.474;2023-08-06T15:37:17;16.50;99.90
15036;DHT22;7615;48.574;13.474;2023-08-06T15:39:45;16.70;99.90
15036;DHT22;7615;48.574;13.474;2023-08-06T15:42:13;18.70;99.90
15036;DHT22;7615;48.574;13.474;2023-08-06T15:44:41;17.00;99.90
15036;DHT22;7615;48.574;13.474;2023-08-06T15:47:09;17.00;99.90
15036;DHT22;7615;48.574;13.474;2023-08-06T15:49:39;17.00;99.90
15036;DHT22;7615;48.574;13.474;2023-08-06T15:52:07;16.90;99.90
15036;DHT22;7615;48.574;13.474;2023-08-06T15:54:33;17.00;99.90